createdAt,value
2022-09-20T00:00:45.191Z,101101.84
2022-09-20T00:03:12.004Z,101101.34
2022-09-20T00:05:38.789Z,101103.81
2022-09-20T00:08:05.544Z,101103.31
2022-09-20T00:10:34.506Z,101105.00
2022-09-20T00:13:01.266Z,101087.28
2022-09-20T00:15:28.040Z,101101.44
2022-09-20T00:17:54.845Z,101106.88
2022-09-20T00:20:21.685Z,101111.84
2022-09-20T00:22:49.549Z,101109.25
2022-09-20T00:25:16.377Z,101105.94
2022-09-20T00:27:43.161Z,101110.78
2022-09-20T00:30:09.905Z,101112.66
2022-09-20T00:32:36.673Z,101114.72
2022-09-20T00:35:10.838Z,101117.84
2022-09-20T00:37:37.628Z,101122.88
2022-09-20T00:40:04.544Z,101127.69
2022-09-20T00:42:31.321Z,101129.38
2022-09-20T00:44:58.113Z,101129.53
2022-09-20T00:47:24.890Z,101139.19
2022-09-20T00:49:51.643Z,101134.13
2022-09-20T00:52:18.557Z,101134.03
2022-09-20T00:54:45.302Z,101135.44
2022-09-20T00:57:12.133Z,101133.28
2022-09-20T00:59:38.881Z,101133.72
2022-09-20T01:02:05.866Z,101129.03
2022-09-20T01:04:32.744Z,101124.03
2022-09-20T01:06:59.505Z,101133.41
2022-09-20T01:09:26.279Z,101127.25
2022-09-20T01:11:53.068Z,101130.41
2022-09-20T01:14:22.089Z,101126.97
2022-09-20T01:16:48.889Z,101125.63
2022-09-20T01:19:15.748Z,101128.16
2022-09-20T01:21:42.529Z,101131.91
2022-09-20T01:24:09.273Z,101130.19
2022-09-20T01:26:36.012Z,101132.69
2022-09-20T01:29:02.777Z,101133.50
2022-09-20T01:31:29.587Z,101133.94
2022-09-20T01:33:56.368Z,101134.00
2022-09-20T01:36:23.248Z,101131.38
2022-09-20T01:38:50.133Z,101135.25
2022-09-20T01:41:16.998Z,101136.44
2022-09-20T01:43:43.768Z,101139.47
2022-09-20T01:46:10.560Z,101135.38
2022-09-20T01:48:37.491Z,101132.97
2022-09-20T01:51:04.266Z,101141.00
2022-09-20T01:53:31.064Z,101137.59
2022-09-20T01:55:57.816Z,101149.16
2022-09-20T01:58:24.577Z,101143.63
2022-09-20T02:00:51.363Z,101137.22
2022-09-20T02:03:18.121Z,101134.44
2022-09-20T02:05:44.928Z,101133.97
2022-09-20T02:08:11.684Z,101139.25
2022-09-20T02:10:38.494Z,101142.41
2022-09-20T02:13:05.253Z,101141.91
2022-09-20T02:15:31.989Z,101140.78
2022-09-20T02:17:58.727Z,101132.41
2022-09-20T02:20:25.506Z,101141.41
2022-09-20T02:22:52.305Z,101140.03
2022-09-20T02:25:19.151Z,101138.97
2022-09-20T02:27:46.010Z,101145.38
2022-09-20T02:30:12.755Z,101139.72
2022-09-20T02:32:39.866Z,101147.13
2022-09-20T02:35:07.018Z,101144.97
2022-09-20T02:37:33.885Z,101154.88
2022-09-20T02:40:00.659Z,101155.25
2022-09-20T02:42:27.448Z,101160.94
2022-09-20T02:44:54.652Z,101156.09
2022-09-20T02:47:21.453Z,101164.50
2022-09-20T02:49:48.229Z,101168.06
2022-09-20T02:52:14.961Z,101167.78
2022-09-20T02:54:41.707Z,101166.88
2022-09-20T02:57:08.469Z,101177.44
2022-09-20T02:59:35.218Z,101170.53
2022-09-20T03:02:02.003Z,101168.88
2022-09-20T03:04:28.818Z,101164.34
2022-09-20T03:06:55.562Z,101172.41
2022-09-20T03:09:22.305Z,101170.13
2022-09-20T03:11:49.232Z,101169.69
2022-09-20T03:14:16.036Z,101164.63
2022-09-20T03:16:42.826Z,101156.19
2022-09-20T03:19:09.681Z,101164.41
2022-09-20T03:21:36.434Z,101169.47
2022-09-20T03:24:03.218Z,101168.38
2022-09-20T03:26:29.982Z,101167.91
2022-09-20T03:28:56.725Z,101175.47
2022-09-20T03:31:23.551Z,101177.72
2022-09-20T03:33:50.375Z,101169.03
2022-09-20T03:36:17.156Z,101172.19
2022-09-20T03:38:43.901Z,101177.47
2022-09-20T03:41:10.795Z,101173.00
2022-09-20T03:43:37.545Z,101169.63
2022-09-20T03:46:04.421Z,101165.72
2022-09-20T03:48:31.254Z,101165.22
2022-09-20T03:50:58.054Z,101165.25
2022-09-20T03:53:24.892Z,101171.19
2022-09-20T03:55:52.024Z,101169.50
2022-09-20T03:58:18.773Z,101173.53
2022-09-20T04:00:45.665Z,101174.38
2022-09-20T04:03:12.456Z,101179.22
2022-09-20T04:05:39.204Z,101178.13
2022-09-20T04:08:06.422Z,101182.69
2022-09-20T04:10:33.188Z,101181.44
2022-09-20T04:13:00.491Z,101178.03
2022-09-20T04:15:27.237Z,101187.28
2022-09-20T04:17:54.164Z,101191.47
2022-09-20T04:20:21.248Z,101195.25
2022-09-20T04:22:48.100Z,101194.63
2022-09-20T04:25:14.976Z,101200.19
2022-09-20T04:27:41.781Z,101200.16
2022-09-20T04:30:08.555Z,101198.47
2022-09-20T04:32:35.302Z,101204.56
2022-09-20T04:35:20.625Z,101202.88
2022-09-20T04:37:47.390Z,101206.81
2022-09-20T04:40:14.971Z,101212.38
2022-09-20T04:42:42.795Z,101209.25
2022-09-20T04:45:09.642Z,101218.34
2022-09-20T04:47:36.594Z,101218.31
2022-09-20T04:50:03.397Z,101213.63
2022-09-20T04:52:30.165Z,101219.06
2022-09-20T04:54:56.904Z,101220.97
2022-09-20T04:57:23.648Z,101221.63
2022-09-20T04:59:52.382Z,101227.91
2022-09-20T05:02:19.189Z,101233.28
2022-09-20T05:04:46.027Z,101233.13
2022-09-20T05:07:12.789Z,101233.38
2022-09-20T05:09:40.351Z,101238.22
2022-09-20T05:12:07.804Z,101235.38
2022-09-20T05:14:34.721Z,101237.63
2022-09-20T05:17:01.799Z,101237.09
2022-09-20T05:19:28.574Z,101238.56
2022-09-20T05:21:55.320Z,101237.78
2022-09-20T05:24:22.063Z,101238.59
2022-09-20T05:26:48.920Z,101240.09
2022-09-20T05:29:15.729Z,101239.88
2022-09-20T05:31:42.541Z,101242.84
2022-09-20T05:34:09.327Z,101246.59
2022-09-20T05:36:36.085Z,101252.66
2022-09-20T05:39:03.645Z,101254.94
2022-09-20T05:41:31.862Z,101258.38
2022-09-20T05:43:58.663Z,101265.53
2022-09-20T05:46:25.405Z,101265.06
2022-09-20T05:48:52.154Z,101267.56
2022-09-20T05:51:18.925Z,101260.44
2022-09-20T05:53:45.673Z,101273.69
2022-09-20T05:56:12.421Z,101269.47
2022-09-20T05:58:39.594Z,101264.09
2022-09-20T06:01:06.812Z,101259.78
2022-09-20T06:03:33.573Z,101263.34
2022-09-20T06:06:00.999Z,101269.03
2022-09-20T06:08:27.740Z,101268.59
2022-09-20T06:10:54.480Z,101270.28
2022-09-20T06:13:21.243Z,101280.00
2022-09-20T06:15:48.000Z,101273.63
2022-09-20T06:18:14.972Z,101281.56
2022-09-20T06:20:41.736Z,101287.09
2022-09-20T06:23:08.488Z,101277.41
2022-09-20T06:25:35.348Z,101289.78
2022-09-20T06:28:02.111Z,101282.09
2022-09-20T06:30:28.952Z,101291.53
2022-09-20T06:32:55.887Z,101285.31
2022-09-20T06:35:22.664Z,101293.81
2022-09-20T06:38:08.145Z,101294.34
2022-09-20T06:40:53.507Z,101296.75
2022-09-20T06:43:20.271Z,101297.41
2022-09-20T06:45:47.919Z,101296.06
2022-09-20T06:48:15.550Z,101300.34
2022-09-20T06:50:45.185Z,101302.88
2022-09-20T06:53:12.165Z,101310.88
2022-09-20T06:55:40.840Z,101304.09
2022-09-20T06:58:09.657Z,101313.38
2022-09-20T07:00:36.807Z,101314.63
2022-09-20T07:03:03.933Z,101311.28
2022-09-20T07:05:30.695Z,101325.06
2022-09-20T07:07:57.436Z,101324.47
2022-09-20T07:10:24.575Z,101325.25
2022-09-20T07:12:51.343Z,101322.72
2022-09-20T07:15:18.181Z,101326.06
2022-09-20T07:17:45.029Z,101329.50
2022-09-20T07:20:11.787Z,101324.66
2022-09-20T07:22:38.590Z,101328.25
2022-09-20T07:25:05.357Z,101327.19
2022-09-20T07:27:32.105Z,101327.38
2022-09-20T07:29:58.848Z,101337.56
2022-09-20T07:32:26.970Z,101338.63
2022-09-20T07:34:53.727Z,101331.81
2022-09-20T07:37:20.493Z,101335.19
2022-09-20T07:39:47.262Z,101341.16
2022-09-20T07:42:14.008Z,101342.66
2022-09-20T07:44:43.845Z,101337.31
2022-09-20T07:47:11.199Z,101338.47
2022-09-20T07:49:37.971Z,101344.88
2022-09-20T07:52:04.775Z,101345.88
2022-09-20T07:54:31.550Z,101352.34
2022-09-20T07:56:58.356Z,101350.44
2022-09-20T07:59:25.903Z,101355.78
2022-09-20T08:01:52.706Z,101362.94
2022-09-20T08:04:19.498Z,101364.22
2022-09-20T08:06:46.361Z,101360.41
2022-09-20T08:09:13.305Z,101371.63
2022-09-20T08:11:40.433Z,101371.41
2022-09-20T08:14:08.809Z,101364.81
2022-09-20T08:16:36.113Z,101369.72
2022-09-20T08:19:02.965Z,101375.44
2022-09-20T08:21:31.379Z,101368.25
2022-09-20T08:23:58.157Z,101378.63
2022-09-20T08:26:25.005Z,101379.09
2022-09-20T08:28:52.195Z,101376.19
2022-09-20T08:31:19.367Z,101390.41
2022-09-20T08:33:46.165Z,101382.81
2022-09-20T08:36:13.025Z,101389.59
2022-09-20T08:41:26.537Z,101393.00
2022-09-20T08:43:53.307Z,101388.38
2022-09-20T08:46:23.250Z,101396.78
2022-09-20T08:48:50.387Z,101398.91
2022-09-20T08:51:22.622Z,101390.00
2022-09-20T08:53:49.993Z,101403.25
2022-09-20T08:56:16.780Z,101391.34
2022-09-20T08:58:43.722Z,101399.66
2022-09-20T09:01:10.482Z,101401.56
2022-09-20T09:03:37.273Z,101399.03
2022-09-20T09:06:07.522Z,101400.09
2022-09-20T09:08:38.223Z,101409.63
2022-09-20T09:11:09.297Z,101407.78
2022-09-20T09:13:36.051Z,101402.09
2022-09-20T09:16:03.354Z,101401.66
2022-09-20T09:18:31.603Z,101406.31
2022-09-20T09:20:59.192Z,101408.03
2022-09-20T09:23:26.006Z,101412.47
2022-09-20T09:25:52.824Z,101416.03
2022-09-20T09:28:19.579Z,101421.53
2022-09-20T09:30:49.772Z,101419.94
2022-09-20T09:33:16.541Z,101412.06
2022-09-20T09:35:43.282Z,101416.19
2022-09-20T09:38:10.061Z,101417.84
2022-09-20T09:40:36.929Z,101427.72
2022-09-20T09:43:04.021Z,101427.13
2022-09-20T09:45:30.853Z,101426.81
2022-09-20T09:47:57.858Z,101423.22
2022-09-20T09:50:24.638Z,101424.91
2022-09-20T09:52:51.388Z,101420.09
2022-09-20T09:55:18.392Z,101433.22
2022-09-20T09:57:45.581Z,101434.91
2022-09-20T10:00:19.196Z,101428.53
2022-09-20T10:02:47.996Z,101434.91
2022-09-20T10:05:14.777Z,101427.91
2022-09-20T10:07:41.521Z,101437.06
2022-09-20T10:10:08.302Z,101428.22
2022-09-20T10:12:35.105Z,101422.94
2022-09-20T10:15:01.899Z,101422.06
2022-09-20T10:17:28.672Z,101418.03
2022-09-20T10:19:55.491Z,101434.34
2022-09-20T10:22:23.125Z,101434.22
2022-09-20T10:24:51.664Z,101430.59
2022-09-20T10:27:19.482Z,101439.09
2022-09-20T10:29:46.826Z,101435.75
2022-09-20T10:32:15.416Z,101430.88
2022-09-20T10:34:42.325Z,101435.75
2022-09-20T10:37:10.437Z,101433.19
2022-09-20T10:39:37.207Z,101434.47
2022-09-20T10:42:22.736Z,101433.84
2022-09-20T10:44:49.548Z,101432.53
2022-09-20T10:47:19.915Z,101430.72
2022-09-20T10:49:50.732Z,101432.44
2022-09-20T10:52:18.101Z,101439.25
2022-09-20T10:54:44.901Z,101439.47
2022-09-20T10:57:11.677Z,101443.31
2022-09-20T10:59:38.514Z,101443.75
2022-09-20T11:02:05.366Z,101447.34
2022-09-20T11:04:32.481Z,101451.81
2022-09-20T11:06:59.240Z,101439.56
2022-09-20T11:09:26.012Z,101453.53
2022-09-20T11:11:52.866Z,101444.16
2022-09-20T11:14:19.702Z,101445.41
2022-09-20T11:16:46.739Z,101445.59
2022-09-20T11:19:13.573Z,101452.72
2022-09-20T11:21:40.368Z,101442.38
2022-09-20T11:24:07.128Z,101441.94
2022-09-20T11:26:33.906Z,101452.63
2022-09-20T11:29:00.748Z,101451.81
2022-09-20T11:31:27.723Z,101442.97
2022-09-20T11:33:55.684Z,101453.53
2022-09-20T11:36:22.479Z,101441.25
2022-09-20T11:38:53.094Z,101438.06
2022-09-20T11:41:20.305Z,101439.34
2022-09-20T11:43:47.837Z,101438.25
2022-09-20T11:46:14.664Z,101441.72
2022-09-20T11:48:41.488Z,101443.75
2022-09-20T11:51:08.688Z,101446.25
2022-09-20T11:53:36.918Z,101437.38
2022-09-20T11:56:05.188Z,101440.97
2022-09-20T11:58:34.322Z,101441.03
2022-09-20T12:01:01.297Z,101447.19
2022-09-20T12:03:28.083Z,101447.56
2022-09-20T12:05:55.500Z,101436.59
2022-09-20T12:08:22.245Z,101438.06
2022-09-20T12:10:51.033Z,101437.22
2022-09-20T12:13:18.239Z,101443.06
2022-09-20T12:15:45.048Z,101434.66
2022-09-20T12:18:12.328Z,101439.16
2022-09-20T12:20:39.119Z,101435.78
2022-09-20T12:23:06.868Z,101432.91
2022-09-20T12:25:33.612Z,101439.94
2022-09-20T12:28:00.651Z,101435.09
2022-09-20T12:30:28.792Z,101435.31
2022-09-20T12:32:56.343Z,101426.03
2022-09-20T12:35:23.178Z,101429.59
2022-09-20T12:37:49.923Z,101430.44
2022-09-20T12:40:16.728Z,101434.44
2022-09-20T12:42:43.733Z,101438.03
2022-09-20T12:45:10.469Z,101429.00
2022-09-20T12:47:37.257Z,101437.00
2022-09-20T12:50:22.668Z,101431.66
2022-09-20T12:53:04.123Z,101428.88
2022-09-20T12:55:30.969Z,101427.22
2022-09-20T12:58:03.872Z,101437.66
2022-09-20T13:00:32.018Z,101440.81
2022-09-20T13:02:58.981Z,101438.28
2022-09-20T13:05:25.730Z,101441.25
2022-09-20T13:07:52.501Z,101438.28
2022-09-20T13:10:20.270Z,101439.97
2022-09-20T13:12:50.383Z,101433.41
2022-09-20T13:15:19.488Z,101434.72
2022-09-20T13:17:46.241Z,101434.19
2022-09-20T13:20:12.992Z,101435.72
2022-09-20T13:22:43.471Z,101442.88
2022-09-20T13:25:11.220Z,101439.72
2022-09-20T13:27:37.961Z,101445.06
2022-09-20T13:30:04.786Z,101437.88
2022-09-20T13:32:31.641Z,101448.84
2022-09-20T13:34:58.403Z,101440.00
2022-09-20T13:37:25.202Z,101449.22
2022-09-20T13:39:51.950Z,101439.06
2022-09-20T13:42:19.635Z,101446.25
2022-09-20T13:44:46.528Z,101438.13
2022-09-20T13:47:13.299Z,101438.88
2022-09-20T13:49:40.187Z,101435.03
2022-09-20T13:52:06.946Z,101442.47
2022-09-20T13:54:33.733Z,101437.84
2022-09-20T13:57:00.485Z,101441.00
2022-09-20T13:59:27.274Z,101430.03
2022-09-20T14:01:54.357Z,101437.84
2022-09-20T14:04:21.478Z,101434.03
2022-09-20T14:06:48.272Z,101431.38
2022-09-20T14:09:15.031Z,101430.69
2022-09-20T14:11:41.781Z,101433.34
2022-09-20T14:14:08.918Z,101435.19
2022-09-20T14:16:35.842Z,101427.91
2022-09-20T14:19:02.605Z,101435.50
2022-09-20T14:21:29.423Z,101442.91
2022-09-20T14:23:58.049Z,101439.78
2022-09-20T14:26:25.566Z,101446.97
2022-09-20T14:28:52.332Z,101440.81
2022-09-20T14:31:19.110Z,101438.69
2022-09-20T14:33:45.912Z,101446.09
2022-09-20T14:36:12.694Z,101452.25
2022-09-20T14:38:39.464Z,101443.81
2022-09-20T14:41:06.206Z,101436.75
2022-09-20T14:43:33.726Z,101445.34
2022-09-20T14:46:01.635Z,101444.78
2022-09-20T14:48:28.419Z,101445.66
2022-09-20T14:50:55.196Z,101450.09
2022-09-20T14:53:22.029Z,101439.13
2022-09-20T14:55:48.779Z,101446.31
2022-09-20T14:58:15.571Z,101448.69
2022-09-20T15:00:42.344Z,101449.50
2022-09-20T15:03:09.143Z,101453.53
2022-09-20T15:05:35.995Z,101452.16
2022-09-20T15:08:02.738Z,101452.78
2022-09-20T15:10:30.357Z,101445.13
2022-09-20T15:12:57.409Z,101456.78
2022-09-20T15:15:24.151Z,101452.53
2022-09-20T15:17:50.904Z,101457.50
2022-09-20T15:20:23.184Z,101465.72
2022-09-20T15:22:50.875Z,101467.06
2022-09-20T15:25:17.679Z,101470.91
2022-09-20T15:27:46.224Z,101472.38
2022-09-20T15:30:12.991Z,101471.50
2022-09-20T15:32:39.727Z,101463.25
2022-09-20T15:35:06.483Z,101469.13
2022-09-20T15:37:33.427Z,101472.09
2022-09-20T15:40:00.272Z,101474.50
2022-09-20T15:42:27.090Z,101470.38
2022-09-20T15:44:53.877Z,101473.53
2022-09-20T15:47:21.993Z,101480.88
2022-09-20T15:49:49.108Z,101478.84
2022-09-20T15:52:15.991Z,101476.75
2022-09-20T15:54:43.285Z,101478.88
2022-09-20T15:57:10.056Z,101481.03
2022-09-20T15:59:36.988Z,101482.50
2022-09-20T16:02:03.765Z,101484.00
2022-09-20T16:04:31.153Z,101474.06
2022-09-20T16:06:57.990Z,101476.09
2022-09-20T16:09:24.783Z,101482.75
2022-09-20T16:11:51.581Z,101476.41
2022-09-20T16:14:18.319Z,101481.31
2022-09-20T16:16:45.219Z,101475.25
2022-09-20T16:19:19.559Z,101482.25
2022-09-20T16:21:55.031Z,101490.16
2022-09-20T16:24:24.055Z,101484.00
2022-09-20T16:26:50.857Z,101490.56
2022-09-20T16:29:17.994Z,101497.56
2022-09-20T16:31:47.202Z,101493.53
2022-09-20T16:34:14.027Z,101499.88
2022-09-20T16:36:44.241Z,101495.25
2022-09-20T16:39:11.027Z,101498.66
2022-09-20T16:41:39.009Z,101507.94
2022-09-20T16:44:05.823Z,101490.53
2022-09-20T16:46:33.419Z,101509.88
2022-09-20T16:49:00.966Z,101512.06
2022-09-20T16:51:27.773Z,101511.47
2022-09-20T16:53:55.511Z,101516.81
2022-09-20T16:56:22.259Z,101516.59
2022-09-20T16:58:49.066Z,101518.72
2022-09-20T17:01:16.867Z,101524.88
2022-09-20T17:03:44.620Z,101528.06
2022-09-20T17:06:11.352Z,101532.53
2022-09-20T17:08:40.928Z,101531.69
2022-09-20T17:11:08.287Z,101538.13
2022-09-20T17:13:35.045Z,101537.84
2022-09-20T17:16:01.904Z,101542.41
2022-09-20T17:18:28.722Z,101541.09
2022-09-20T17:20:55.464Z,101540.59
2022-09-20T17:23:23.570Z,101543.09
2022-09-20T17:25:54.684Z,101551.88
2022-09-20T17:28:21.448Z,101556.72
2022-09-20T17:30:48.203Z,101558.50
2022-09-20T17:33:15.368Z,101560.22
2022-09-20T17:35:42.143Z,101563.38
2022-09-20T17:38:08.912Z,101558.88
2022-09-20T17:40:35.770Z,101558.56
2022-09-20T17:43:03.200Z,101563.72
2022-09-20T17:45:29.975Z,101573.47
2022-09-20T17:47:57.448Z,101586.19
2022-09-20T17:50:24.201Z,101583.66
2022-09-20T17:52:51.020Z,101583.59
2022-09-20T17:55:17.778Z,101586.47
2022-09-20T17:57:44.557Z,101591.78
2022-09-20T18:00:11.348Z,101594.81
2022-09-20T18:02:39.143Z,101594.47
2022-09-20T18:05:05.895Z,101597.88
2022-09-20T18:07:34.248Z,101610.66
2022-09-20T18:10:00.988Z,101598.75
2022-09-20T18:12:27.780Z,101607.03
2022-09-20T18:14:56.812Z,101612.97
2022-09-20T18:17:23.573Z,101614.09
2022-09-20T18:19:50.318Z,101612.16
2022-09-20T18:22:17.090Z,101621.94
2022-09-20T18:24:43.832Z,101627.56
2022-09-20T18:27:10.575Z,101630.94
2022-09-20T18:29:37.473Z,101636.59
2022-09-20T18:32:04.304Z,101627.78
2022-09-20T18:34:31.068Z,101631.19
2022-09-20T18:36:57.935Z,101629.56
2022-09-20T18:39:24.962Z,101636.09
2022-09-20T18:41:52.853Z,101636.34
2022-09-20T18:44:19.625Z,101649.75
2022-09-20T18:46:46.444Z,101649.31
2022-09-20T18:49:14.802Z,101648.91
2022-09-20T18:51:41.845Z,101651.47
2022-09-20T18:54:11.483Z,101654.41
2022-09-20T18:56:38.287Z,101652.84
2022-09-20T18:59:06.115Z,101662.97
2022-09-20T19:01:32.954Z,101669.09
2022-09-20T19:03:59.933Z,101668.63
2022-09-20T19:06:26.696Z,101672.22
2022-09-20T19:08:53.576Z,101672.13
2022-09-20T19:11:20.728Z,101672.38
2022-09-20T19:13:47.517Z,101671.13
2022-09-20T19:16:14.296Z,101687.00
2022-09-20T19:18:41.072Z,101670.63
2022-09-20T19:21:07.847Z,101675.75
2022-09-20T19:23:34.622Z,101673.47
2022-09-20T19:26:01.379Z,101680.31
2022-09-20T19:28:28.143Z,101684.66
2022-09-20T19:30:55.213Z,101686.03
2022-09-20T19:33:21.971Z,101680.81
2022-09-20T19:35:49.746Z,101680.44
2022-09-20T19:38:17.636Z,101687.91
2022-09-20T19:40:44.732Z,101696.47
2022-09-20T19:43:13.231Z,101699.28
2022-09-20T19:45:40.437Z,101704.31
2022-09-20T19:48:07.190Z,101703.94
2022-09-20T19:50:33.945Z,101705.63
2022-09-20T19:53:03.915Z,101711.81
2022-09-20T19:55:30.648Z,101717.97
2022-09-20T19:57:57.593Z,101706.69
2022-09-20T20:00:24.375Z,101713.63
2022-09-20T20:02:51.219Z,101716.06
2022-09-20T20:05:18.504Z,101706.72
2022-09-20T20:07:46.256Z,101710.50
2022-09-20T20:10:13.035Z,101719.41
2022-09-20T20:12:39.808Z,101714.88
2022-09-20T20:15:06.553Z,101708.75
2022-09-20T20:17:33.319Z,101719.13
2022-09-20T20:20:00.626Z,101717.91
2022-09-20T20:22:29.163Z,101724.72
2022-09-20T20:24:56.598Z,101727.06
2022-09-20T20:27:23.421Z,101727.06
2022-09-20T20:29:52.103Z,101733.72
2022-09-20T20:32:18.905Z,101728.03
2022-09-20T20:34:46.793Z,101734.19
2022-09-20T20:37:14.049Z,101732.41
2022-09-20T20:39:40.801Z,101743.31
2022-09-20T20:42:09.924Z,101742.34
2022-09-20T20:44:36.752Z,101742.28
2022-09-20T20:47:03.498Z,101742.78
2022-09-20T20:49:30.323Z,101751.13
2022-09-20T20:51:58.428Z,101748.22
2022-09-20T20:54:25.284Z,101743.97
2022-09-20T20:56:52.049Z,101746.38
2022-09-20T20:59:18.784Z,101754.34
2022-09-20T21:01:45.843Z,101752.81
2022-09-20T21:04:12.739Z,101758.28
2022-09-20T21:06:42.592Z,101760.19
2022-09-20T21:09:09.335Z,101765.09
2022-09-20T21:11:36.106Z,101762.81
2022-09-20T21:14:02.994Z,101762.94
2022-09-20T21:16:29.800Z,101758.09
2022-09-20T21:18:56.602Z,101761.78
2022-09-20T21:21:23.400Z,101759.38
2022-09-20T21:23:50.149Z,101757.06
2022-09-20T21:26:16.975Z,101760.72
2022-09-20T21:28:44.165Z,101761.25
2022-09-20T21:31:10.991Z,101765.75
2022-09-20T21:33:37.837Z,101771.44
2022-09-20T21:36:04.580Z,101767.50
2022-09-20T21:38:34.518Z,101773.16
2022-09-20T21:41:02.576Z,101772.00
2022-09-20T21:43:29.317Z,101778.56
2022-09-20T21:45:58.258Z,101778.28
2022-09-20T21:48:25.485Z,101774.78
2022-09-20T21:50:52.352Z,101785.13
2022-09-20T21:53:19.176Z,101799.25
2022-09-20T21:55:46.010Z,101795.69
2022-09-20T21:58:12.796Z,101795.81
2022-09-20T22:00:39.544Z,101792.97
2022-09-20T22:03:06.931Z,101790.91
2022-09-20T22:05:34.220Z,101802.88
2022-09-20T22:08:00.978Z,101801.78
2022-09-20T22:10:27.833Z,101800.06
2022-09-20T22:12:54.583Z,101796.41
2022-09-20T22:15:21.332Z,101800.81
2022-09-20T22:17:48.288Z,101806.41
2022-09-20T22:20:15.069Z,101806.81
2022-09-20T22:22:41.813Z,101802.09
2022-09-20T22:25:08.629Z,101804.69
2022-09-20T22:27:35.437Z,101801.84
2022-09-20T22:30:05.019Z,101801.59
2022-09-20T22:32:31.991Z,101803.34
2022-09-20T22:34:59.868Z,101809.31
2022-09-20T22:37:26.738Z,101812.06
2022-09-20T22:39:53.528Z,101803.56
2022-09-20T22:42:20.282Z,101798.94
2022-09-20T22:44:47.044Z,101809.97
2022-09-20T22:47:13.941Z,101804.47
2022-09-20T22:49:40.693Z,101804.25
2022-09-20T22:52:07.579Z,101800.75
2022-09-20T22:54:35.486Z,101796.69
2022-09-20T22:57:02.305Z,101794.81
2022-09-20T22:59:29.052Z,101798.72
2022-09-20T23:01:55.800Z,101790.38
2022-09-20T23:04:23.342Z,101799.97
2022-09-20T23:06:54.389Z,101793.94
2022-09-20T23:09:21.156Z,101795.38
2022-09-20T23:11:47.904Z,101802.66
2022-09-20T23:14:14.676Z,101805.44
2022-09-20T23:16:41.546Z,101812.22
2022-09-20T23:19:08.372Z,101817.66
2022-09-20T23:21:35.129Z,101815.84
2022-09-20T23:24:01.940Z,101824.25
2022-09-20T23:26:29.688Z,101814.22
2022-09-20T23:28:56.621Z,101813.56
2022-09-20T23:31:23.456Z,101820.94
2022-09-20T23:33:50.200Z,101823.31
2022-09-20T23:36:16.990Z,101813.81
2022-09-20T23:38:43.814Z,101812.41
2022-09-20T23:41:10.572Z,101820.28
2022-09-20T23:43:37.333Z,101819.69
2022-09-20T23:46:04.188Z,101817.22
2022-09-20T23:48:30.993Z,101819.34
2022-09-20T23:50:57.736Z,101819.19
2022-09-20T23:53:24.518Z,101829.03
2022-09-20T23:55:51.291Z,101827.72
2022-09-20T23:58:18.033Z,101831.06
